Time;durP1;ratioP1;P1;durP2;ratioP2;P2;SDS_P1;SDS_P2;PMS_P1;PMS_P2;Temp;Humidity;BMP_temperature;BMP_pressure;BME280_temperature;BME280_humidity;BME280_pressure;Samples;Min_cycle;Max_cycle;Signal;HPM_P1;HPM_P2
2022/08/18 00:01:23;;;;;;;;;16.67;15.33;;;;;21.98;100.00;100961.00;5014850;28;45220;-72
2022/08/18 00:03:50;;;;;;;;;18.67;12.67;;;;;21.98;100.00;100961.00;5014702;28;63254;-74
2022/08/18 00:06:16;;;;;;;;;17.00;16.00;;;;;21.96;100.00;100970.94;5014465;28;51496;-72
2022/08/18 00:08:41;;;;;;;;;15.33;14.00;;;;;21.92;100.00;100963.91;5014810;28;45262;-74
2022/08/18 00:11:06;;;;;;;;;23.00;18.33;;;;;21.91;100.00;100966.66;5014892;28;49953;-73
2022/08/18 00:13:32;;;;;;;;;16.00;14.67;;;;;21.84;100.00;100962.41;5013605;28;57152;-71
2022/08/18 00:15:57;;;;;;;;;18.00;16.33;;;;;21.84;100.00;100959.72;5015492;28;45587;-71
2022/08/18 00:18:23;;;;;;;;;16.00;15.00;;;;;21.78;100.00;100965.31;5015301;28;54860;-71
2022/08/18 00:20:48;;;;;;;;;14.67;14.67;;;;;21.79;100.00;100973.34;5013824;28;67826;-74
2022/08/18 00:23:14;;;;;;;;;16.00;15.33;;;;;21.77;100.00;100969.81;5015433;28;45497;-71
2022/08/18 00:25:40;;;;;;;;;18.33;16.33;;;;;21.75;100.00;100970.78;5015036;28;45695;-71
2022/08/18 00:28:05;;;;;;;;;7.00;6.00;;;;;21.72;100.00;100966.38;5014424;28;46471;-73
2022/08/18 00:30:31;;;;;;;;;13.67;13.67;;;;;21.68;100.00;100959.38;5014735;28;45280;-72
2022/08/18 00:32:58;;;;;;;;;17.33;14.00;;;;;21.64;100.00;100958.59;5014633;28;45445;-73
2022/08/18 00:35:29;;;;;;;;;12.67;12.67;;;;;21.62;100.00;100959.56;5014476;28;45904;-71
2022/08/18 00:37:57;;;;;;;;;18.67;17.00;;;;;21.57;100.00;100956.13;5013533;28;46397;-71
2022/08/18 00:40:29;;;;;;;;;17.33;15.67;;;;;21.50;100.00;100949.22;4994572;28;45559;-72
2022/08/18 00:42:57;;;;;;;;;19.33;17.33;;;;;21.52;100.00;100956.31;5012141;28;45494;-71
2022/08/18 00:45:31;;;;;;;;;12.33;11.33;;;;;21.48;100.00;100964.50;5018275;28;45557;-74
2022/08/18 00:47:57;;;;;;;;;14.00;12.67;;;;;21.40;100.00;100960.25;5015374;28;47486;-72
2022/08/18 00:50:37;;;;;;;;;15.67;14.67;;;;;21.42;100.00;100973.66;5017747;28;45258;-71
2022/08/18 00:53:06;;;;;;;;;18.67;15.33;;;;;21.34;100.00;100960.44;5018011;28;45334;-71
2022/08/18 00:55:32;;;;;;;;;15.33;11.67;;;;;21.32;100.00;100965.00;5000468;28;45624;-70
2022/08/18 00:58:03;;;;;;;;;15.33;14.67;;;;;21.34;100.00;100970.31;4997500;28;45564;-71
2022/08/18 01:00:29;;;;;;;;;15.00;13.67;;;;;21.32;100.00;100975.75;5017546;28;45454;-71
2022/08/18 01:02:57;;;;;;;;;14.00;14.00;;;;;21.30;100.00;100966.81;5018138;28;45274;-72
2022/08/18 01:05:33;;;;;;;;;14.00;14.00;;;;;21.26;100.00;100966.97;4997956;28;45391;-72
2022/08/18 01:07:59;;;;;;;;;16.33;14.67;;;;;21.23;100.00;100972.41;5000281;28;47603;-72
2022/08/18 01:10:25;;;;;;;;;15.67;15.67;;;;;21.25;100.00;100976.81;4999550;28;45624;-74
2022/08/18 01:12:56;;;;;;;;;16.67;13.67;;;;;21.21;100.00;100974.28;5016934;28;60745;-71
2022/08/18 01:15:24;;;;;;;;;18.33;15.33;;;;;21.20;100.00;100976.09;5017833;28;45430;-71
2022/08/18 01:24:04;;;;;;;;;15.67;12.33;;;;;21.26;100.00;100981.28;5006624;28;45337;-71
2022/08/18 01:26:30;;;;;;;;;13.00;13.00;;;;;21.18;100.00;100965.38;5017747;28;45572;-71
2022/08/18 01:29:03;;;;;;;;;14.00;14.00;;;;;21.29;100.00;100982.97;5017444;28;46595;-73
2022/08/18 01:31:42;;;;;;;;;14.00;12.00;;;;;21.22;100.00;100973.34;5017026;28;45477;-71
2022/08/18 01:34:09;;;;;;;;;12.33;12.33;;;;;21.25;100.00;100981.28;5015787;28;46641;-73
2022/08/18 01:36:37;;;;;;;;;17.33;15.33;;;;;21.21;100.00;100975.16;5017359;28;46271;-71
2022/08/18 01:39:05;;;;;;;;;15.33;15.33;;;;;21.21;100.00;100980.53;5016169;28;47114;-75
2022/08/18 01:41:30;;;;;;;;;12.33;11.00;;;;;21.21;100.00;100985.03;5016771;28;45231;-70
2022/08/18 01:43:57;;;;;;;;;15.00;14.00;;;;;21.19;100.00;100983.25;5015861;28;62802;-71
2022/08/18 01:46:23;;;;;;;;;15.67;15.33;;;;;21.17;100.00;100979.72;5017565;28;45591;-73
2022/08/18 01:48:48;;;;;;;;;13.33;13.00;;;;;21.19;100.00;100988.63;5016970;28;46958;-71
2022/08/18 01:51:15;;;;;;;;;12.67;12.67;;;;;21.17;100.00;100992.28;5016778;28;45455;-72
2022/08/18 01:53:40;;;;;;;;;12.67;12.67;;;;;21.14;100.00;100992.38;5017039;28;45358;-71
2022/08/18 01:56:06;;;;;;;;;13.00;11.33;;;;;21.14;100.00;100997.72;5015957;28;61550;-72
2022/08/18 01:58:33;;;;;;;;;10.67;10.67;;;;;21.12;100.00;100997.78;5016666;28;45515;-71
2022/08/18 02:01:00;;;;;;;;;14.00;12.67;;;;;21.09;100.00;101005.03;4999094;28;45315;-71
2022/08/18 02:03:30;;;;;;;;;12.00;11.33;;;;;21.07;100.00;101004.22;5016852;28;45310;-72
2022/08/18 02:06:00;;;;;;;;;12.67;12.67;;;;;21.03;100.00;101000.75;5017105;28;45365;-73
2022/08/18 02:08:25;;;;;;;;;12.33;11.33;;;;;21.02;100.00;101006.16;5012971;28;46626;-71
2022/08/18 02:10:51;;;;;;;;;12.67;12.67;;;;;21.00;100.00;101011.59;5016449;28;50400;-71
2022/08/18 02:13:17;;;;;;;;;10.67;10.67;;;;;20.90;100.00;101000.22;4999389;28;45604;-71
2022/08/18 02:15:42;;;;;;;;;13.00;12.67;;;;;20.88;100.00;101010.16;5016800;28;45676;-72
2022/08/18 02:18:20;;;;;;;;;13.00;13.00;;;;;20.87;100.00;101004.78;5016596;28;46164;-71
2022/08/18 02:20:46;;;;;;;;;13.67;12.33;;;;;20.88;100.00;100998.53;5016666;28;45464;-71
2022/08/18 02:23:12;;;;;;;;;11.33;11.33;;;;;20.87;100.00;101005.69;5016306;28;45548;-70
2022/08/18 02:25:38;;;;;;;;;15.00;14.67;;;;;20.85;100.00;101012.91;5015690;28;45493;-72
2022/08/18 02:28:04;;;;;;;;;11.33;11.33;;;;;20.89;100.00;101017.25;5015835;28;65217;-71
2022/08/18 02:30:29;;;;;;;;;16.00;15.33;;;;;20.85;100.00;101003.97;5015840;28;47142;-71
2022/08/18 02:32:57;;;;;;;;;14.67;14.67;;;;;20.85;100.00;101003.97;5016561;28;45714;-73
2022/08/18 02:35:23;;;;;;;;;14.33;14.00;;;;;20.88;100.00;101020.00;5016748;28;45207;-71
2022/08/18 02:37:48;;;;;;;;;12.00;12.00;;;;;20.86;100.00;101014.66;4998480;28;45596;-72
2022/08/18 02:40:15;;;;;;;;;13.33;10.00;;;;;20.81;100.00;101000.47;5015369;28;45508;-72
2022/08/18 02:42:40;;;;;;;;;9.67;9.67;;;;;20.82;100.00;101004.94;5016845;28;45323;-74
2022/08/18 02:45:06;;;;;;;;;12.67;12.67;;;;;20.77;100.00;101001.50;5016645;28;45352;-73
2022/08/18 02:47:32;;;;;;;;;12.67;10.00;;;;;20.78;100.00;100999.72;5015971;28;45863;-72
2022/08/18 02:49:57;;;;;;;;;14.67;12.67;;;;;20.62;100.00;100985.84;5015875;28;45351;-73
2022/08/18 02:52:28;;;;;;;;;13.33;12.00;;;;;20.73;100.00;100997.16;5015147;28;63323;-72
2022/08/18 02:54:53;;;;;;;;;13.00;12.00;;;;;20.76;100.00;100997.06;4999638;28;45443;-73
2022/08/18 02:57:21;;;;;;;;;13.67;12.67;;;;;20.75;100.00;100989.06;5015208;28;70630;-73
2022/08/18 02:59:46;;;;;;;;;9.67;9.67;;;;;20.74;100.00;100984.63;5015388;28;45361;-71
2022/08/18 03:02:12;;;;;;;;;14.33;10.67;;;;;20.65;100.00;100981.25;5016236;28;45484;-71
2022/08/18 03:04:37;;;;;;;;;17.33;13.67;;;;;20.69;100.00;100984.75;5014944;28;45290;-71
2022/08/18 03:07:05;;;;;;;;;12.00;10.00;;;;;20.62;100.00;100969.75;5015274;28;46716;-71
2022/08/18 03:09:31;;;;;;;;;13.00;11.33;;;;;20.65;100.00;100988.44;5015771;28;45309;-72
2022/08/18 03:11:57;;;;;;;;;13.67;11.67;;;;;20.62;100.00;100977.81;5016136;28;45500;-72
2022/08/18 03:14:22;;;;;;;;;12.33;12.33;;;;;20.55;100.00;100970.81;5016019;28;45674;-71
2022/08/18 03:16:48;;;;;;;;;12.33;8.33;;;;;20.54;100.00;100961.91;5014692;28;71136;-73
2022/08/18 03:19:15;;;;;;;;;13.67;12.00;;;;;20.56;100.00;100977.94;5015878;28;45477;-71
2022/08/18 03:21:41;;;;;;;;;14.67;13.00;;;;;20.49;100.00;100968.31;5012459;28;45315;-70
2022/08/18 03:24:07;;;;;;;;;12.00;12.00;;;;;20.48;100.00;100975.50;5016218;28;45354;-74
2022/08/18 03:26:33;;;;;;;;;14.00;13.00;;;;;20.40;100.00;100958.72;5014438;28;67092;-72
2022/08/18 03:28:59;;;;;;;;;12.33;11.33;;;;;20.48;100.00;100982.66;5015816;28;45326;-72
2022/08/18 03:31:27;;;;;;;;;10.00;9.00;;;;;20.44;100.00;100980.94;5015321;28;45216;-71
2022/08/18 03:33:53;;;;;;;;;11.67;11.67;;;;;20.41;100.00;100979.25;5015516;28;45537;-72
2022/08/18 03:36:21;;;;;;;;;11.00;11.00;;;;;20.36;100.00;100968.63;5015426;28;46316;-72
2022/08/18 03:38:48;;;;;;;;;10.67;10.67;;;;;20.32;100.00;100980.34;5011415;28;45604;-72
2022/08/18 03:41:15;;;;;;;;;11.67;11.67;;;;;20.32;100.00;100972.31;5015658;28;45377;-73
2022/08/18 03:43:41;;;;;;;;;11.33;11.33;;;;;20.27;100.00;100962.63;5015865;28;45322;-72
2022/08/18 03:46:10;;;;;;;;;9.67;9.67;;;;;20.27;100.00;100965.31;5015806;28;46672;-72
2022/08/18 03:48:39;;;;;;;;;12.67;9.00;;;;;20.30;100.00;100963.44;5014377;28;45588;-72
2022/08/18 03:51:06;;;;;;;;;9.00;9.00;;;;;20.29;100.00;100974.19;5015624;28;45497;-73
2022/08/18 03:53:35;;;;;;;;;13.00;12.67;;;;;20.27;100.00;100979.59;5014974;28;45220;-72
2022/08/18 03:56:06;;;;;;;;;11.67;9.67;;;;;20.22;100.00;100961.88;5015387;28;46395;-72
2022/08/18 03:58:31;;;;;;;;;10.33;10.33;;;;;20.22;100.00;100965.44;5015030;28;45816;-72
2022/08/18 04:00:57;;;;;;;;;11.00;7.67;;;;;20.25;100.00;100975.22;4995907;28;45460;-72
2022/08/18 04:03:22;;;;;;;;;13.00;8.67;;;;;20.19;100.00;100976.25;5014812;28;55521;-72
2022/08/18 04:05:47;;;;;;;;;11.33;11.33;;;;;20.20;100.00;100979.81;5014535;28;64019;-72
2022/08/18 04:08:13;;;;;;;;;9.33;9.33;;;;;20.20;100.00;100982.50;5014313;28;58914;-72
2022/08/18 04:10:38;;;;;;;;;11.33;11.33;;;;;20.19;100.00;100981.63;5014891;28;45516;-74
2022/08/18 04:13:04;;;;;;;;;10.33;10.33;;;;;20.13;100.00;100974.63;5014714;28;62337;-71
2022/08/18 04:15:30;;;;;;;;;9.67;9.67;;;;;20.15;100.00;100979.94;5014463;28;46545;-72
2022/08/18 04:18:07;;;;;;;;;10.67;8.00;;;;;20.05;100.00;100954.28;5016289;28;45524;-71
2022/08/18 04:20:33;;;;;;;;;10.67;10.67;;;;;20.07;100.00;100966.72;5018366;28;45487;-72
2022/08/18 04:22:59;;;;;;;;;14.00;13.00;;;;;20.04;100.00;100969.50;5018575;28;45663;-73
2022/08/18 04:25:25;;;;;;;;;9.67;9.67;;;;;20.09;100.00;100980.09;5018293;28;46710;-71
2022/08/18 04:27:53;;;;;;;;;11.00;11.00;;;;;20.07;100.00;100976.56;5018337;28;45232;-71
2022/08/18 04:30:19;;;;;;;;;12.00;11.33;;;;;20.05;100.00;100978.41;5018279;28;46288;-72
2022/08/18 04:32:44;;;;;;;;;12.00;10.33;;;;;20.03;100.00;100975.78;5018545;28;46315;-71
2022/08/18 04:35:10;;;;;;;;;12.67;12.67;;;;;19.98;100.00;100971.44;5017975;28;45769;-71
2022/08/18 04:37:37;;;;;;;;;9.33;9.33;;;;;20.03;100.00;100977.56;5000189;28;45393;-72
2022/08/18 04:40:04;;;;;;;;;11.67;11.67;;;;;20.02;100.00;100973.09;5018175;28;45524;-71
2022/08/18 04:42:29;;;;;;;;;12.33;12.33;;;;;19.96;100.00;100963.44;5017922;28;45383;-73
2022/08/18 04:44:54;;;;;;;;;15.00;12.00;;;;;19.97;100.00;100966.97;5017892;28;60813;-71
2022/08/18 04:47:20;;;;;;;;;14.00;11.00;;;;;20.02;100.00;100982.03;5017004;28;68943;-72
2022/08/18 04:49:46;;;;;;;;;11.33;11.33;;;;;20.02;100.00;100981.16;5000134;28;45998;-72
2022/08/18 04:54:55;;;;;;;;;13.00;9.33;;;;;19.98;100.00;100979.50;5018213;28;45881;-73
2022/08/18 04:57:21;;;;;;;;;14.33;14.33;;;;;20.02;100.00;100990.06;5016904;28;64618;-71
2022/08/18 04:59:48;;;;;;;;;13.00;11.33;;;;;20.02;100.00;100999.91;5018251;28;45357;-71
2022/08/18 05:02:14;;;;;;;;;9.00;9.00;;;;;20.00;100.00;101005.31;5017321;28;45469;-72
2022/08/18 05:04:41;;;;;;;;;14.67;13.33;;;;;19.99;100.00;101024.13;5017828;28;46692;-72
2022/08/18 05:07:09;;;;;;;;;14.00;13.00;;;;;19.92;100.00;101012.69;5013249;28;45496;-69
2022/08/18 05:09:35;;;;;;;;;10.33;10.33;;;;;19.92;100.00;101014.47;5016653;28;45568;-69
2022/08/18 05:12:02;;;;;;;;;10.33;10.33;;;;;19.94;100.00;101018.00;5017874;28;45512;-70
2022/08/18 05:14:28;;;;;;;;;15.33;13.00;;;;;19.93;100.00;101024.28;5017196;28;46663;-72
2022/08/18 05:16:57;;;;;;;;;11.00;11.00;;;;;19.95;100.00;101023.31;5017493;28;45438;-71
2022/08/18 05:19:24;;;;;;;;;12.00;12.00;;;;;19.94;100.00;101028.72;5016441;28;45806;-70
2022/08/18 05:21:50;;;;;;;;;15.67;13.33;;;;;19.99;100.00;101037.53;5017353;28;45449;-69
2022/08/18 05:24:16;;;;;;;;;15.67;12.67;;;;;19.99;100.00;101034.84;5017024;28;52835;-70
2022/08/18 05:26:41;;;;;;;;;14.67;14.67;;;;;19.99;100.00;101034.84;5016943;28;45472;-69
2022/08/18 05:29:07;;;;;;;;;12.33;12.33;;;;;19.99;100.00;101041.09;5017358;28;45331;-69
2022/08/18 05:31:32;;;;;;;;;13.00;13.00;;;;;19.98;100.00;101046.50;5015348;28;63247;-69
2022/08/18 05:34:01;;;;;;;;;12.00;12.00;;;;;20.00;100.00;101044.66;5015742;28;46036;-71
2022/08/18 05:36:39;;;;;;;;;12.67;12.67;;;;;19.97;100.00;101031.31;5014547;28;45548;-71
2022/08/18 05:39:14;;;;;;;;;14.33;13.67;;;;;20.02;100.00;101043.69;5016495;28;45515;-70
2022/08/18 05:41:52;;;;;;;;;13.33;12.00;;;;;19.99;100.00;101027.69;5016955;28;45619;-69
2022/08/18 05:44:23;;;;;;;;;12.33;12.33;;;;;20.06;100.00;101037.34;5016279;28;46663;-72
2022/08/18 05:47:03;;;;;;;;;13.33;12.00;;;;;20.04;100.00;101041.88;5016927;28;47158;-74
2022/08/18 05:49:29;;;;;;;;;12.67;12.67;;;;;20.04;100.00;101041.00;5012461;28;45438;-70
2022/08/18 05:52:00;;;;;;;;;16.67;13.67;;;;;19.99;100.00;101030.38;4996015;28;57833;-69
2022/08/18 05:57:18;;;;;;;;;15.00;15.00;;;;;20.02;100.00;101051.72;5014126;28;45501;-71
2022/08/18 05:59:44;;;;;;;;;14.67;14.67;;;;;19.98;100.00;101046.50;4994593;28;45505;-70
2022/08/18 06:02:33;;;;;;;;;16.00;15.00;;;;;20.03;100.00;101055.31;5015051;28;45438;-70
2022/08/18 06:05:12;;;;;;;;;13.67;13.67;;;;;20.04;100.00;101059.75;4994570;28;45608;-69
2022/08/18 06:07:50;;;;;;;;;13.67;13.67;;;;;20.00;100.00;101050.88;4996961;28;45499;-71
2022/08/18 06:10:15;;;;;;;;;16.00;16.00;;;;;20.02;100.00;101053.53;5018653;28;45204;-71
2022/08/18 06:12:53;;;;;;;;;17.33;16.33;;;;;20.09;100.00;101060.53;4999057;28;58397;-72
2022/08/18 06:15:24;;;;;;;;;19.33;17.33;;;;;20.09;100.00;101058.72;5008963;28;46219;-71
2022/08/18 06:18:11;;;;;;;;;18.33;15.00;;;;;20.11;100.00;101056.00;5017380;28;45432;-70
2022/08/18 06:21:00;;;;;;;;;18.00;17.67;;;;;20.14;100.00;101053.25;5017313;28;45557;-71
2022/08/18 06:23:37;;;;;;;;;15.33;15.33;;;;;20.11;100.00;101039.91;5016097;28;45405;-71
2022/08/18 06:26:40;;;;;;;;;18.00;16.67;;;;;20.20;100.00;101053.09;5015631;28;47424;-70
2022/08/18 06:29:37;;;;;;;;;18.33;17.00;;;;;20.23;100.00;101046.75;5014694;28;45440;-69
2022/08/18 06:32:09;;;;;;;;;21.67;18.00;;;;;20.27;100.00;101054.69;5014222;28;45513;-70
2022/08/18 06:35:00;;;;;;;;;24.67;20.33;;;;;20.31;100.00;101058.19;5016709;28;45562;-69
2022/08/18 06:37:30;;;;;;;;;24.33;18.00;;;;;20.35;100.00;101066.09;5016132;28;46694;-69
2022/08/18 06:39:56;;;;;;;;;20.00;20.00;;;;;20.37;100.00;101064.25;4998357;28;45275;-69
2022/08/18 06:42:29;;;;;;;;;24.67;20.00;;;;;20.40;100.00;101068.69;5017136;28;45593;-69
2022/08/18 06:45:00;;;;;;;;;19.33;17.00;;;;;20.37;100.00;101056.22;5019291;28;45589;-69
2022/08/18 06:47:43;;;;;;;;;20.67;20.67;;;;;20.43;100.00;101068.56;4994100;28;46466;-69
2022/08/18 06:50:26;;;;;;;;;22.33;19.33;;;;;20.51;100.00;101069.31;4998997;28;45590;-74
2022/08/18 06:52:55;;;;;;;;;23.67;21.67;;;;;20.57;100.00;101070.94;5017446;28;45342;-70
2022/08/18 06:55:42;;;;;;;;;27.00;22.33;;;;;20.57;100.00;101061.09;5016693;28;45517;-70
2022/08/18 06:58:19;;;;;;;;;21.33;21.33;;;;;20.61;100.00;101064.56;4994509;28;46569;-71
2022/08/18 07:00:53;;;;;;;;;23.33;21.67;;;;;20.63;100.00;101062.72;5016393;28;45477;-70
2022/08/18 07:03:22;;;;;;;;;23.00;21.67;;;;;20.64;100.00;101064.47;5016243;28;45267;-69
2022/08/18 07:06:07;;;;;;;;;20.33;20.33;;;;;20.71;100.00;101078.63;5015257;28;45595;-71
2022/08/18 07:08:34;;;;;;;;;28.00;25.33;;;;;20.69;100.00;101067.94;4998562;28;45579;-69
2022/08/18 07:11:19;;;;;;;;;25.33;25.33;;;;;20.79;100.00;101076.63;5015715;28;45359;-69
2022/08/18 07:13:48;;;;;;;;;24.00;24.00;;;;;20.83;100.00;101073.81;5011433;28;45558;-69
2022/08/18 07:16:34;;;;;;;;;29.33;26.67;;;;;20.88;100.00;101068.31;5017349;28;45473;-69
2022/08/18 07:19:09;;;;;;;;;27.00;26.33;;;;;20.91;100.00;101078.94;5015696;28;46553;-70
2022/08/18 07:21:37;;;;;;;;;28.33;26.67;;;;;20.93;100.00;101088.75;5016056;28;45466;-73
2022/08/18 07:26:57;;;;;;;;;33.67;30.00;;;;;20.99;100.00;101094.88;5050898;22;64869;-69
2022/08/18 07:29:22;;;;;;;;;30.00;28.00;;;;;21.03;100.00;101093.84;4999773;28;47411;-68
2022/08/18 07:31:51;;;;;;;;;33.50;32.25;;;;;21.04;100.00;101090.22;5046243;28;45840;-68
2022/08/18 07:34:24;;;;;;;;;29.67;27.33;;;;;21.08;100.00;101094.59;5002913;28;47082;-69
2022/08/18 07:36:56;;;;;;;;;31.67;28.00;;;;;21.11;100.00;101083.78;4996866;28;45378;-69
2022/08/18 07:39:29;;;;;;;;;31.50;30.75;;;;;21.16;100.00;101090.78;5070382;28;46636;-70
2022/08/18 07:42:03;;;;;;;;;31.50;29.00;;;;;21.19;100.00;101079.03;5004809;28;46966;-70
2022/08/18 07:44:43;;;;;;;;;31.50;30.50;;;;;21.12;100.00;101067.59;5049632;28;45547;-71
2022/08/18 07:47:30;;;;;;;;;39.50;33.00;;;;;21.26;100.00;101086.03;5044241;28;45592;-69
2022/08/18 07:49:57;;;;;;;;;39.50;34.75;;;;;21.23;100.00;101071.78;4996569;28;46550;-71
2022/08/18 07:52:52;;;;;;;;;41.50;33.25;;;;;21.33;100.00;101076.00;5021908;28;45610;-69
2022/08/18 07:55:26;;;;;;;;;36.00;30.00;;;;;21.36;100.00;101084.84;4967622;28;45332;-69
2022/08/18 07:58:04;;;;;;;;;35.00;33.25;;;;;21.40;100.00;101089.19;5043402;28;45556;-71
2022/08/18 08:01:01;;;;;;;;;41.00;33.50;;;;;21.41;100.00;101080.22;4990128;28;46331;-70
2022/08/18 08:03:51;;;;;;;;;39.50;34.00;;;;;21.54;100.00;101074.47;5000468;28;47501;-71
2022/08/18 08:06:22;;;;;;;;;41.75;34.75;;;;;21.59;100.00;101072.53;5000923;28;45521;-69
2022/08/18 08:09:14;;;;;;;;;39.50;34.50;;;;;21.57;100.00;101058.25;5003983;28;45476;-71
2022/08/18 08:11:40;;;;;;;;;40.50;34.50;;;;;21.73;100.00;101070.28;5045591;28;46498;-72
2022/08/18 08:14:08;;;;;;;;;40.50;33.75;;;;;21.80;100.00;101074.56;4999960;28;45546;-69
2022/08/18 08:16:45;;;;;;;;;40.75;34.50;;;;;21.87;100.00;101077.91;5003751;28;45338;-70
2022/08/18 08:19:34;;;;;;;;;38.25;34.50;;;;;21.92;100.00;101076.84;4997717;28;47526;-71
2022/08/18 08:22:03;;;;;;;;;39.50;35.50;;;;;21.96;100.00;101065.06;5042052;28;45759;-69
2022/08/18 08:24:48;;;;;;;;;32.75;31.50;;;;;22.01;100.00;101074.81;4994633;28;47577;-71
2022/08/18 08:27:19;;;;;;;;;33.67;31.67;;;;;22.05;100.00;101066.59;5044139;28;45459;-69
2022/08/18 08:29:50;;;;;;;;;36.00;33.00;;;;;22.10;100.00;101069.09;5070003;27;45520;-69
2022/08/18 08:32:36;;;;;;;;;39.75;33.75;;;;;22.15;100.00;101062.66;5038644;28;47578;-69
2022/08/18 08:35:18;;;;;;;;;37.75;33.50;;;;;22.22;100.00;101061.56;5046015;28;45954;-70
2022/08/18 08:37:52;;;;;;;;;39.50;34.75;;;;;22.28;100.00;101063.16;5046623;28;45476;-69
2022/08/18 08:40:43;;;;;;;;;43.00;35.50;;;;;22.28;100.00;101054.22;5047605;28;45466;-70
2022/08/18 08:43:12;;;;;;;;;37.50;33.75;;;;;22.35;100.00;101062.00;5047478;28;46205;-73
2022/08/18 08:45:59;;;;;;;;;35.33;33.00;;;;;22.44;100.00;101063.50;5048451;28;45471;-70
2022/08/18 08:48:28;;;;;;;;;34.00;31.33;;;;;22.41;100.00;101045.66;5044110;28;45567;-70
2022/08/18 08:51:35;;;;;;;;;32.00;31.67;;;;;22.54;100.00;101064.06;5047062;28;45230;-69
2022/08/18 08:54:07;;;;;;;;;32.67;30.00;;;;;22.54;100.00;101059.56;5045802;28;47323;-69
2022/08/18 08:56:43;;;;;;;;;35.33;31.33;;;;;22.62;100.00;101072.75;5050510;28;45185;-73
2022/08/18 08:59:11;;;;;;;;;37.00;31.67;;;;;22.61;100.00;101066.50;5043209;28;47057;-69
2022/08/18 09:01:42;;;;;;;;;40.33;33.00;;;;;22.70;100.00;101076.06;5038284;28;45352;-69
2022/08/18 09:04:39;;;;;;;;;29.67;29.67;;;;;22.74;100.00;101073.22;5051537;28;45408;-69
2022/08/18 09:07:20;;;;;;;;;30.67;30.67;;;;;22.79;100.00;101069.44;5039036;28;45378;-72
2022/08/18 09:09:51;;;;;;;;;33.33;31.33;;;;;22.84;100.00;101071.03;5056738;28;45471;-69
2022/08/18 09:12:41;;;;;;;;;32.67;29.33;;;;;22.90;100.00;101069.97;5051690;28;45550;-69
2022/08/18 09:15:45;;;;;;;;;31.67;30.67;;;;;22.96;100.00;101075.16;5046167;28;46522;-69
2022/08/18 09:18:42;;;;;;;;;34.00;30.33;;;;;23.04;100.00;101077.56;5042107;28;45681;-71
2022/08/18 09:21:29;;;;;;;;;31.67;28.67;;;;;23.12;100.00;101080.88;5050045;28;45535;-70
2022/08/18 09:24:06;;;;;;;;;34.00;31.33;;;;;23.14;100.00;101076.28;5048615;28;45572;-69
2022/08/18 09:26:38;;;;;;;;;29.00;29.00;;;;;23.24;100.00;101081.28;5051111;28;47402;-71
2022/08/18 09:29:22;;;;;;;;;31.33;30.33;;;;;23.29;100.00;101085.63;5049902;28;45474;-69
2022/08/18 09:31:48;;;;;;;;;33.67;30.00;;;;;23.29;100.00;101074.84;5046868;28;46410;-69
2022/08/18 09:34:46;;;;;;;;;30.67;27.67;;;;;23.38;100.00;101071.78;5046315;28;45421;-70
2022/08/18 09:37:40;;;;;;;;;35.67;30.67;;;;;23.50;100.00;101088.38;5046557;28;46688;-70
2022/08/18 09:43:09;;;;;;;;;31.00;28.33;;;;;23.59;100.00;101075.47;5053030;28;45511;-71
2022/08/18 09:45:41;;;;;;;;;36.33;31.67;;;;;23.64;100.00;101076.19;5044179;28;45480;-71
2022/08/18 09:48:09;;;;;;;;;34.67;32.00;;;;;23.71;100.00;101075.03;5038782;28;47775;-70
2022/08/18 09:50:38;;;;;;;;;31.00;30.67;;;;;23.79;100.00;101070.19;5055622;28;46913;-69
2022/08/18 09:53:37;;;;;;;;;26.67;23.67;;;;;23.85;100.00;101074.47;5046035;28;45415;-70
2022/08/18 09:56:04;;;;;;;;;28.67;25.67;;;;;23.90;100.00;101073.34;5044354;28;45355;-70
2022/08/18 09:58:57;;;;;;;;;29.67;25.00;;;;;23.95;100.00;101081.25;5054193;28;46537;-70
2022/08/18 10:01:29;;;;;;;;;25.67;25.67;;;;;24.00;100.00;101082.81;5047068;28;45471;-70
2022/08/18 10:04:12;;;;;;;;;28.67;27.67;;;;;24.05;100.00;101072.72;5049124;28;45900;-72
2022/08/18 10:06:38;;;;;;;;;29.00;26.67;;;;;24.04;100.00;101062.88;5043115;28;45706;-70
2022/08/18 10:09:14;;;;;;;;;31.67;30.33;;;;;24.13;100.00;101058.03;5049306;28;46783;-73
2022/08/18 10:12:18;;;;;;;;;31.00;27.67;;;;;24.26;100.00;101064.69;5049469;28;45457;-73
2022/08/18 10:15:01;;;;;;;;;25.00;25.00;;;;;24.30;100.00;101066.31;5048573;28;46402;-70
2022/08/18 10:17:48;;;;;;;;;20.00;20.00;;;;;24.36;100.00;101066.09;5050438;28;45396;-70
2022/08/18 10:20:58;;;;;;;;;25.33;25.33;;;;;24.42;100.00;101049.63;5050825;28;45626;-71
2022/08/18 10:24:11;;;;;;;;;26.67;25.33;;;;;24.48;100.00;101049.34;5031381;28;45566;-70
2022/08/18 10:26:37;;;;;;;;;28.67;26.67;;;;;24.54;100.00;101048.19;5040679;28;45370;-71
2022/08/18 10:29:10;;;;;;;;;27.67;26.67;;;;;24.58;100.00;101038.16;5051307;28;45336;-70
2022/08/18 10:31:58;;;;;;;;;27.67;26.00;;;;;24.67;100.00;101026.97;5052719;28;46750;-72
2022/08/18 10:34:26;;;;;;;;;22.33;22.33;;;;;24.71;100.00;101034.84;5045292;28;45457;-70
2022/08/18 10:36:55;;;;;;;;;24.33;24.33;;;;;24.76;100.00;101021.13;5044234;28;45499;-70
2022/08/18 10:39:43;;;;;;;;;19.33;19.33;;;;;24.82;100.00;101015.44;5049515;28;45646;-72
2022/08/18 10:42:27;;;;;;;;;21.00;21.00;;;;;24.88;100.00;101017.91;5042758;28;47353;-69
2022/08/18 10:45:21;;;;;;;;;19.33;18.33;;;;;24.94;100.00;101016.72;5045092;28;45499;-70
2022/08/18 10:48:10;;;;;;;;;19.33;19.33;;;;;25.03;100.00;101019.88;5051034;28;45389;-70
2022/08/18 10:51:12;;;;;;;;;20.67;19.67;;;;;25.10;100.00;101014.25;5051694;28;45563;-70
2022/08/18 10:53:50;;;;;;;;;19.00;19.00;;;;;25.17;100.00;101018.41;5052048;28;47432;-70
2022/08/18 10:56:33;;;;;;;;;24.67;23.00;;;;;25.27;100.00;101022.44;5050879;28;45488;-73
2022/08/18 10:59:27;;;;;;;;;23.67;22.33;;;;;25.41;100.00;101013.63;5051527;28;45379;-73
2022/08/18 11:02:20;;;;;;;;;17.33;17.33;;;;;25.58;100.00;101014.59;5047162;28;45569;-73
2022/08/18 11:04:47;;;;;;;;;18.00;16.00;;;;;25.73;100.00;101020.22;5048361;28;46275;-70
2022/08/18 11:07:18;;;;;;;;;17.67;17.67;;;;;25.81;100.00;101018.91;5048142;28;45468;-70
2022/08/18 11:09:45;;;;;;;;;15.67;15.67;;;;;25.86;100.00;101015.97;5044081;28;45601;-72
2022/08/18 11:12:12;;;;;;;;;21.67;18.33;;;;;25.84;100.00;101007.09;5045190;28;45329;-73
2022/08/18 11:15:17;;;;;;;;;15.00;15.00;;;;;25.99;100.00;101018.94;5050375;28;47152;-72
2022/08/18 11:18:22;;;;;;;;;15.67;15.67;;;;;26.11;100.00;101021.06;5050898;28;45551;-72
2022/08/18 11:20:48;;;;;;;;;17.33;16.00;;;;;26.15;100.00;101014.50;5049402;28;45481;-72
2022/08/18 11:23:15;;;;;;;;;16.00;16.00;;;;;26.13;98.29;101011.00;5043556;28;45464;-71
2022/08/18 11:25:41;;;;;;;;;14.33;13.00;;;;;26.18;96.08;101014.34;5044521;28;47565;-70
2022/08/18 11:28:18;;;;;;;;;14.33;14.33;;;;;26.32;96.27;101016.38;5048663;28;46037;-73
2022/08/18 11:30:49;;;;;;;;;17.67;15.67;;;;;26.42;95.89;101009.56;5050387;28;45359;-70
2022/08/18 11:33:17;;;;;;;;;17.67;15.00;;;;;26.57;95.31;101008.72;5049265;28;45425;-70
2022/08/18 11:35:52;;;;;;;;;16.00;13.67;;;;;26.78;93.89;101013.97;5051035;28;45685;-70
2022/08/18 11:38:20;;;;;;;;;17.00;15.67;;;;;26.91;92.75;101015.06;5046125;28;45485;-70
2022/08/18 11:40:49;;;;;;;;;17.00;14.67;;;;;26.92;91.66;101011.41;5047264;28;45532;-70
2022/08/18 11:43:38;;;;;;;;;15.00;15.00;;;;;26.95;91.60;101013.06;5047331;28;45379;-69
2022/08/18 11:46:28;;;;;;;;;16.00;15.00;;;;;26.94;90.88;101005.88;5045496;28;46762;-70